Saint-Jean-De-Dieu, Canada
Current Conditions -  °F | °C
As of 7:00 PM on Friday 24 Oct 2014 (Local Time) from CYYY Reporting Station
Overcast Overcast  
Wind Chill: 39°   Ceiling: 10000
Heat Index: 43°   Visibility: 30mi
Dew Point: 30°   Wind: 7mph
Humidity: 61%   Direction: 70°ENE
Pressure: 29.78"   Gusts: NA
Location:  48.02°N, 69.05°W
Report Text: CYYY 242300Z 07006KT 30SM OVC100 06/M01 A2978 RMK AC8 SLP085
Loading
Personal Weather Stations






























Interactive Weather Map
Tropical Storm Tracking
New forecast layout! Learn more

10-Day Weather Forecast

Advertisements
Track Severe Weather on mobile